Time;durP1;ratioP1;P1;durP2;ratioP2;P2;SDS_P1;SDS_P2;PMS_P1;PMS_P2;Temp;Humidity;BMP_temperature;BMP_pressure;BME280_temperature;BME280_humidity;BME280_pressure;Samples;Min_cycle;Max_cycle;Signal;HPM_P1;HPM_P2
2023/12/24 00:01:02;;;;;;;23.77;22.38;;;8.50;99.90;;;;;;5019556;28;20049;-82
2023/12/24 00:03:28;;;;;;;18.75;17.55;;;8.50;99.90;;;;;;5019142;28;20057;-82
2023/12/24 00:05:53;;;;;;;19.35;18.40;;;8.50;99.90;;;;;;5018950;28;20045;-83
2023/12/24 00:08:20;;;;;;;20.05;19.02;;;8.50;99.90;;;;;;5035652;28;20037;-82
2023/12/24 00:10:45;;;;;;;21.67;20.40;;;8.50;99.90;;;;;;5019077;28;20397;-83
2023/12/24 00:13:11;;;;;;;20.58;19.27;;;8.50;99.90;;;;;;5019825;28;20046;-83
2023/12/24 00:15:37;;;;;;;22.73;21.52;;;8.50;99.90;;;;;;4986475;28;20041;-83
2023/12/24 00:18:03;;;;;;;18.48;17.42;;;8.50;99.90;;;;;;5018914;28;20052;-82
2023/12/24 00:20:28;;;;;;;20.80;19.05;;;8.40;99.90;;;;;;5035250;28;20092;-85
2023/12/24 00:23:07;;;;;;;21.17;20.15;;;8.50;99.90;;;;;;5018841;28;20046;-83
2023/12/24 00:25:38;;;;;;;19.27;18.08;;;8.40;99.90;;;;;;5018651;28;20088;-86
2023/12/24 00:28:04;;;;;;;20.33;19.08;;;8.50;99.90;;;;;;5019037;28;20057;-83
2023/12/24 00:30:30;;;;;;;20.48;19.35;;;8.40;99.90;;;;;;5034802;28;20510;-91
2023/12/24 00:32:57;;;;;;;19.85;18.60;;;8.40;99.90;;;;;;5035951;28;20137;-85
2023/12/24 00:35:24;;;;;;;21.73;20.52;;;8.50;99.90;;;;;;5034741;28;20486;-82
2023/12/24 00:37:50;;;;;;;21.30;19.98;;;8.40;99.90;;;;;;5034778;28;20486;-82
2023/12/24 00:40:18;;;;;;;21.45;20.08;;;8.50;99.90;;;;;;5019255;28;20099;-87
2023/12/24 00:42:44;;;;;;;21.88;20.58;;;8.50;99.90;;;;;;5001834;28;20401;-82
2023/12/24 00:45:11;;;;;;;21.77;20.17;;;8.50;99.90;;;;;;5018846;28;20076;-87
2023/12/24 00:47:37;;;;;;;20.48;19.30;;;8.50;99.90;;;;;;5034882;28;20136;-83
2023/12/24 00:50:04;;;;;;;19.33;18.25;;;8.50;99.90;;;;;;5034442;28;20569;-82
2023/12/24 00:52:30;;;;;;;23.45;21.63;;;8.50;99.90;;;;;;5019096;28;20077;-85
2023/12/24 00:54:56;;;;;;;26.40;24.83;;;8.50;99.90;;;;;;5018517;28;20093;-84
2023/12/24 00:57:21;;;;;;;23.20;21.92;;;8.50;99.90;;;;;;5018156;28;20095;-87
2023/12/24 00:59:47;;;;;;;30.73;29.25;;;8.50;99.90;;;;;;5001534;28;20087;-86
2023/12/24 01:02:13;;;;;;;21.90;20.70;;;8.50;99.90;;;;;;5034441;28;20091;-85
2023/12/24 01:04:38;;;;;;;21.30;19.85;;;8.50;99.90;;;;;;5018050;28;20052;-84
2023/12/24 01:07:04;;;;;;;21.52;20.52;;;8.50;99.90;;;;;;5018146;28;20541;-81
2023/12/24 01:09:30;;;;;;;22.83;21.63;;;8.50;99.90;;;;;;5018559;28;20045;-82
2023/12/24 01:11:55;;;;;;;23.38;21.88;;;8.50;99.90;;;;;;5034419;28;20045;-85
2023/12/24 01:14:21;;;;;;;22.33;21.35;;;8.50;99.90;;;;;;5017945;28;20100;-84
2023/12/24 01:16:47;;;;;;;21.92;20.65;;;8.50;99.90;;;;;;5034305;28;20081;-87
2023/12/24 01:19:13;;;;;;;22.95;21.75;;;8.50;99.90;;;;;;5017709;28;20041;-83
2023/12/24 01:21:38;;;;;;;25.45;24.30;;;8.50;99.90;;;;;;5034473;28;20128;-83
2023/12/24 01:24:05;;;;;;;22.90;21.60;;;8.50;99.90;;;;;;5017757;28;20045;-84
2023/12/24 01:26:36;;;;;;;24.33;22.92;;;8.50;99.90;;;;;;5002237;28;20064;-88
2023/12/24 01:29:03;;;;;;;23.70;22.38;;;8.50;99.90;;;;;;5001677;28;20053;-83
2023/12/24 01:31:28;;;;;;;27.67;26.42;;;8.50;99.90;;;;;;5016746;28;20464;-84
2023/12/24 01:33:54;;;;;;;26.92;25.00;;;8.50;99.90;;;;;;5017534;28;20128;-85
2023/12/24 01:36:20;;;;;;;22.23;20.80;;;8.60;99.90;;;;;;5001673;28;20133;-86
2023/12/24 01:38:46;;;;;;;22.67;21.52;;;8.50;99.90;;;;;;5001420;28;20543;-87
2023/12/24 01:41:12;;;;;;;23.98;22.63;;;8.50;99.90;;;;;;5017515;28;20464;-84
2023/12/24 01:43:41;;;;;;;24.38;23.15;;;8.50;99.90;;;;;;5016860;28;20141;-85
2023/12/24 01:46:12;;;;;;;22.20;21.10;;;8.50;99.90;;;;;;5033749;28;20051;-86
2023/12/24 01:48:39;;;;;;;21.95;20.85;;;8.50;99.90;;;;;;5017604;28;20136;-84
2023/12/24 01:51:05;;;;;;;23.30;22.25;;;8.50;99.90;;;;;;5033395;28;20124;-84
2023/12/24 01:53:32;;;;;;;25.65;24.10;;;8.50;99.90;;;;;;5017093;28;20132;-85
2023/12/24 01:56:00;;;;;;;24.80;23.10;;;8.60;99.90;;;;;;5033552;28;20053;-82
2023/12/24 01:58:27;;;;;;;39.58;37.78;;;8.50;99.90;;;;;;5017331;28;20079;-84
2023/12/24 02:00:53;;;;;;;23.30;21.90;;;8.50;99.90;;;;;;5017864;28;20103;-88
2023/12/24 02:03:20;;;;;;;25.50;24.30;;;8.50;99.90;;;;;;5017884;28;20073;-87
2023/12/24 02:05:47;;;;;;;23.70;22.52;;;8.50;99.90;;;;;;5016670;28;20565;-84
2023/12/24 02:08:18;;;;;;;23.60;22.48;;;8.50;99.90;;;;;;5016960;28;20401;-85
2023/12/24 02:10:44;;;;;;;24.15;22.58;;;8.50;99.90;;;;;;5000667;28;20184;-83
2023/12/24 02:13:11;;;;;;;23.77;22.40;;;8.50;99.90;;;;;;5033336;28;20405;-88
2023/12/24 02:15:38;;;;;;;23.08;21.70;;;8.50;99.90;;;;;;5000712;28;20053;-85
2023/12/24 02:18:06;;;;;;;24.13;22.67;;;8.50;99.90;;;;;;5017055;28;20048;-83
2023/12/24 02:20:32;;;;;;;22.75;21.75;;;8.50;99.90;;;;;;5016652;28;20092;-86
2023/12/24 02:22:58;;;;;;;22.42;21.40;;;8.50;99.90;;;;;;5016739;28;20049;-84
2023/12/24 02:25:24;;;;;;;21.02;20.02;;;8.50;99.90;;;;;;5016958;28;20458;-85
2023/12/24 02:28:17;;;;;;;23.55;22.27;;;8.50;99.90;;;;;;5017005;28;20440;-84
2023/12/24 02:30:47;;;;;;;23.08;22.10;;;8.50;99.90;;;;;;5032899;28;20486;-89
2023/12/24 02:33:15;;;;;;;24.92;24.00;;;8.50;99.90;;;;;;5033895;28;20427;-86
2023/12/24 02:35:43;;;;;;;24.15;23.25;;;8.60;99.90;;;;;;5000671;28;20088;-86
2023/12/24 02:38:09;;;;;;;20.27;19.38;;;8.60;99.90;;;;;;5017312;28;20088;-83
2023/12/24 02:40:35;;;;;;;22.10;21.10;;;8.60;99.90;;;;;;5033201;28;20057;-83
2023/12/24 02:43:01;;;;;;;21.77;20.77;;;8.60;99.90;;;;;;4999057;28;20057;-84
2023/12/24 02:45:26;;;;;;;19.08;18.25;;;8.60;99.90;;;;;;5033176;28;20055;-83
2023/12/24 02:47:52;;;;;;;18.77;18.05;;;8.60;99.90;;;;;;5000769;28;20041;-84
2023/12/24 02:50:19;;;;;;;19.48;18.63;;;8.50;99.90;;;;;;5016937;28;20351;-86
2023/12/24 02:52:46;;;;;;;18.35;17.65;;;8.60;99.90;;;;;;5000291;28;20049;-85
2023/12/24 02:55:12;;;;;;;19.10;18.20;;;8.60;99.90;;;;;;5016544;28;20053;-86
2023/12/24 02:57:38;;;;;;;18.48;17.58;;;8.60;99.90;;;;;;5000262;28;20056;-86
2023/12/24 03:00:08;;;;;;;19.83;19.02;;;8.50;99.90;;;;;;5016170;28;20041;-83
2023/12/24 03:02:35;;;;;;;21.52;20.52;;;8.50;99.90;;;;;;5016462;28;20448;-83
2023/12/24 03:05:01;;;;;;;19.35;18.60;;;8.60;99.90;;;;;;5016106;28;20103;-83
2023/12/24 03:07:28;;;;;;;21.25;20.45;;;8.60;99.90;;;;;;5016868;28;20136;-83
2023/12/24 03:09:54;;;;;;;16.95;16.25;;;8.60;99.90;;;;;;5032097;28;20041;-87
2023/12/24 03:12:20;;;;;;;19.30;18.50;;;8.60;99.90;;;;;;5016430;28;20041;-83
2023/12/24 03:14:45;;;;;;;29.10;27.85;;;8.60;99.90;;;;;;5015722;28;20046;-84
2023/12/24 03:17:11;;;;;;;28.75;27.50;;;8.60;99.90;;;;;;4999769;28;20045;-83
2023/12/24 03:19:37;;;;;;;16.45;15.55;;;8.60;99.90;;;;;;5015986;28;20123;-86
2023/12/24 03:22:03;;;;;;;29.27;27.92;;;8.60;99.90;;;;;;5016255;28;20046;-84
2023/12/24 03:24:28;;;;;;;16.45;15.65;;;8.60;99.90;;;;;;4983248;28;20119;-85
2023/12/24 03:26:54;;;;;;;15.60;14.90;;;8.70;99.90;;;;;;5016195;28;20056;-85
2023/12/24 03:29:21;;;;;;;17.10;16.25;;;8.60;99.90;;;;;;5015744;28;20532;-82
2023/12/24 03:31:46;;;;;;;18.25;17.20;;;8.60;99.90;;;;;;5016667;28;20145;-84
2023/12/24 03:34:12;;;;;;;16.63;15.88;;;8.50;99.90;;;;;;5015886;28;20085;-84
2023/12/24 03:36:38;;;;;;;16.40;15.52;;;8.60;99.90;;;;;;4983448;28;20049;-82
2023/12/24 03:39:05;;;;;;;19.38;18.55;;;8.60;99.90;;;;;;4999564;28;20087;-83
2023/12/24 03:41:30;;;;;;;15.45;14.80;;;8.60;99.90;;;;;;5015616;28;20084;-83
2023/12/24 03:43:56;;;;;;;16.65;15.95;;;8.60;99.90;;;;;;5000382;28;20053;-85
2023/12/24 03:46:22;;;;;;;16.33;15.57;;;8.70;99.90;;;;;;5015767;28;20390;-86
2023/12/24 03:48:47;;;;;;;15.68;14.93;;;8.60;99.90;;;;;;5000420;28;20056;-85
2023/12/24 03:51:14;;;;;;;15.85;15.07;;;8.60;99.90;;;;;;4999487;28;20045;-84
2023/12/24 03:53:40;;;;;;;16.92;16.23;;;8.60;99.90;;;;;;5032438;28;20394;-88
2023/12/24 03:56:09;;;;;;;20.90;20.00;;;8.60;99.90;;;;;;5034737;28;20056;-88
2023/12/24 03:58:35;;;;;;;15.43;14.73;;;8.70;99.90;;;;;;5035755;28;20138;-84
2023/12/24 04:01:01;;;;;;;16.38;15.68;;;8.70;99.90;;;;;;5019235;28;20048;-86
2023/12/24 04:03:26;;;;;;;17.38;16.52;;;8.70;99.90;;;;;;5003178;28;20053;-85
2023/12/24 04:05:52;;;;;;;15.32;14.70;;;8.70;99.90;;;;;;5019081;28;20106;-84
2023/12/24 04:08:17;;;;;;;15.25;14.52;;;8.60;99.90;;;;;;5019387;28;20084;-84
2023/12/24 04:10:44;;;;;;;16.27;15.55;;;8.70;99.90;;;;;;5019021;28;20037;-87
2023/12/24 04:13:09;;;;;;;16.25;15.43;;;8.70;99.90;;;;;;5019086;28;20080;-82
2023/12/24 04:15:35;;;;;;;15.38;14.75;;;8.80;99.90;;;;;;5019917;28;20546;-86
2023/12/24 04:18:01;;;;;;;14.60;14.00;;;8.70;99.90;;;;;;5019815;28;20053;-84
2023/12/24 04:20:27;;;;;;;14.90;14.20;;;8.70;99.90;;;;;;5019860;28;20067;-85
2023/12/24 04:22:53;;;;;;;14.70;13.90;;;8.80;99.90;;;;;;5019646;28;20466;-82
2023/12/24 04:25:18;;;;;;;15.38;14.68;;;8.80;99.90;;;;;;5002923;28;20053;-83
2023/12/24 04:27:44;;;;;;;15.48;14.73;;;8.80;99.90;;;;;;5035582;28;20045;-82
2023/12/24 04:30:10;;;;;;;17.40;16.52;;;8.80;99.90;;;;;;5002531;28;20038;-89
2023/12/24 04:32:36;;;;;;;19.23;18.42;;;8.80;99.90;;;;;;5019830;28;20061;-83
2023/12/24 04:35:02;;;;;;;17.17;16.50;;;8.80;99.90;;;;;;5018715;28;20041;-84
2023/12/24 04:37:28;;;;;;;15.05;14.45;;;8.80;99.90;;;;;;5002611;28;20132;-82
2023/12/24 04:39:54;;;;;;;14.80;14.20;;;8.80;99.90;;;;;;5002555;28;20046;-85
2023/12/24 04:42:19;;;;;;;14.75;14.15;;;8.80;99.90;;;;;;5018410;28;20056;-85
2023/12/24 04:44:45;;;;;;;13.20;12.70;;;8.80;99.90;;;;;;5034949;28;20049;-82
2023/12/24 04:47:11;;;;;;;13.63;13.02;;;8.80;99.90;;;;;;5034946;28;20052;-86
2023/12/24 04:49:37;;;;;;;13.88;13.20;;;8.90;99.90;;;;;;5018470;28;20555;-83
2023/12/24 04:52:03;;;;;;;14.57;13.98;;;8.80;99.90;;;;;;5035036;28;20042;-85
2023/12/24 04:54:30;;;;;;;13.00;12.43;;;8.80;99.90;;;;;;5002902;28;20063;-83
2023/12/24 04:56:55;;;;;;;13.13;12.63;;;8.90;99.90;;;;;;5018168;28;20057;-82
2023/12/24 04:59:21;;;;;;;13.00;12.30;;;8.90;99.90;;;;;;5034743;28;20049;-83
2023/12/24 05:01:50;;;;;;;13.10;12.50;;;8.90;99.90;;;;;;5018982;28;20053;-87
2023/12/24 05:04:16;;;;;;;13.48;12.88;;;9.00;99.90;;;;;;5018994;28;20368;-83
2023/12/24 05:06:42;;;;;;;12.88;12.35;;;8.90;99.90;;;;;;5001098;28;20056;-88
2023/12/24 05:09:07;;;;;;;15.30;14.70;;;9.00;99.90;;;;;;5017909;28;20111;-82
2023/12/24 05:11:33;;;;;;;15.77;15.18;;;9.00;99.90;;;;;;5001643;28;20049;-82
2023/12/24 05:14:00;;;;;;;12.57;12.07;;;9.00;99.90;;;;;;5018322;28;20084;-83
2023/12/24 05:16:26;;;;;;;12.38;11.88;;;9.00;99.90;;;;;;5017834;28;20049;-83
2023/12/24 05:18:51;;;;;;;13.10;12.50;;;9.00;99.90;;;;;;5017818;28;20079;-84
2023/12/24 05:21:17;;;;;;;14.45;13.85;;;9.00;99.90;;;;;;5017798;28;20045;-83
2023/12/24 05:23:43;;;;;;;12.90;12.30;;;9.10;99.90;;;;;;5017716;28;20562;-85
2023/12/24 05:26:09;;;;;;;13.15;12.65;;;9.00;99.90;;;;;;5001234;28;20057;-86
2023/12/24 05:28:34;;;;;;;13.30;12.80;;;9.10;99.90;;;;;;5034954;28;20110;-84
2023/12/24 05:31:00;;;;;;;13.20;12.70;;;9.10;99.90;;;;;;5001283;28;20041;-86
2023/12/24 05:33:26;;;;;;;12.25;11.65;;;9.00;99.90;;;;;;5017566;28;20394;-85
2023/12/24 05:35:51;;;;;;;11.55;11.05;;;9.10;99.90;;;;;;5018210;28;20045;-88
2023/12/24 05:38:19;;;;;;;10.60;10.20;;;9.20;99.90;;;;;;5034912;28;20045;-85
2023/12/24 05:40:45;;;;;;;11.85;11.25;;;9.20;99.90;;;;;;5018542;28;20042;-84
2023/12/24 05:43:10;;;;;;;12.18;11.68;;;9.10;99.90;;;;;;5000924;28;20053;-89
2023/12/24 05:45:37;;;;;;;13.38;12.88;;;9.20;99.90;;;;;;5017486;28;20042;-85
2023/12/24 05:48:03;;;;;;;11.80;11.30;;;9.10;99.90;;;;;;5001493;28;20520;-86
2023/12/24 05:50:29;;;;;;;11.98;11.43;;;9.20;99.90;;;;;;5033499;28;20080;-85
2023/12/24 05:52:55;;;;;;;11.88;11.38;;;9.30;99.90;;;;;;5016981;28;20053;-84
2023/12/24 05:55:21;;;;;;;17.77;16.92;;;9.30;99.90;;;;;;5017166;28;20052;-84
2023/12/24 05:57:47;;;;;;;14.02;13.45;;;9.30;99.90;;;;;;5016987;28;20045;-82
2023/12/24 06:00:13;;;;;;;13.10;12.60;;;9.30;99.90;;;;;;5017330;28;20146;-85
2023/12/24 06:02:38;;;;;;;17.27;16.55;;;9.30;99.90;;;;;;5017284;28;20088;-83
2023/12/24 06:05:04;;;;;;;14.80;14.20;;;9.40;99.90;;;;;;5000734;28;20084;-85
2023/12/24 06:07:30;;;;;;;15.63;14.93;;;9.40;99.90;;;;;;5016841;28;20050;-85
2023/12/24 06:09:55;;;;;;;11.88;11.27;;;9.40;99.90;;;;;;5000891;28;20102;-85
2023/12/24 06:12:21;;;;;;;12.77;12.18;;;9.30;99.90;;;;;;5017315;28;20489;-86
2023/12/24 06:14:47;;;;;;;13.23;12.73;;;9.20;99.90;;;;;;5016902;28;20150;-84
2023/12/24 06:17:12;;;;;;;13.80;13.30;;;9.40;99.90;;;;;;5033268;28;20072;-83
2023/12/24 06:19:38;;;;;;;12.10;11.60;;;9.40;99.90;;;;;;5017063;28;20072;-84
2023/12/24 06:22:05;;;;;;;12.27;11.73;;;9.50;99.90;;;;;;5017608;28;20135;-87
2023/12/24 06:24:31;;;;;;;11.70;11.10;;;9.40;99.90;;;;;;5001649;28;20045;-86
2023/12/24 06:26:56;;;;;;;13.73;13.18;;;9.50;99.90;;;;;;5000292;28;20132;-86
2023/12/24 06:29:22;;;;;;;15.65;14.85;;;9.40;99.90;;;;;;5016689;28;20140;-82
2023/12/24 06:31:48;;;;;;;12.65;11.95;;;9.50;99.90;;;;;;5000537;28;20091;-85
2023/12/24 06:34:14;;;;;;;13.10;12.50;;;9.40;99.90;;;;;;4984312;28;20053;-84
2023/12/24 06:36:40;;;;;;;18.83;18.00;;;9.40;99.90;;;;;;5016467;28;20099;-82
2023/12/24 06:39:05;;;;;;;11.88;11.20;;;9.50;99.90;;;;;;5033131;28;20076;-83
2023/12/24 06:41:31;;;;;;;11.70;11.10;;;9.60;99.90;;;;;;5033561;28;20046;-81
2023/12/24 06:43:57;;;;;;;13.18;12.38;;;9.60;99.90;;;;;;5033826;28;20057;-84
2023/12/24 06:46:24;;;;;;;12.63;11.82;;;9.60;99.90;;;;;;5016841;28;20056;-86
2023/12/24 06:48:51;;;;;;;11.73;11.13;;;9.60;99.90;;;;;;5033590;28;20064;-86
2023/12/24 06:51:17;;;;;;;12.65;12.05;;;9.50;99.90;;;;;;5016446;28;20045;-86
2023/12/24 06:53:43;;;;;;;13.30;12.38;;;9.70;99.90;;;;;;5016638;28;20042;-86
2023/12/24 06:56:09;;;;;;;12.70;12.00;;;9.70;99.90;;;;;;5016651;28;20057;-87
2023/12/24 06:58:35;;;;;;;12.85;11.98;;;9.60;99.90;;;;;;5016611;28;20119;-84
2023/12/24 07:01:01;;;;;;;12.40;11.60;;;9.50;99.90;;;;;;5000306;28;20045;-86
2023/12/24 07:03:26;;;;;;;16.08;14.88;;;9.70;99.90;;;;;;5033485;28;20494;-85
2023/12/24 07:05:53;;;;;;;14.85;13.88;;;9.70;99.90;;;;;;4999869;28;20104;-81
2023/12/24 07:08:20;;;;;;;13.63;12.73;;;9.70;99.90;;;;;;5033345;28;20049;-84
2023/12/24 07:10:46;;;;;;;15.43;14.55;;;9.80;99.90;;;;;;5016441;28;20053;-85
2023/12/24 07:13:12;;;;;;;14.60;13.63;;;9.80;99.90;;;;;;5016159;28;20045;-83
2023/12/24 07:15:42;;;;;;;13.20;12.30;;;9.70;99.90;;;;;;5016425;28;20122;-86
2023/12/24 07:18:08;;;;;;;14.02;12.80;;;9.80;99.90;;;;;;5016502;28;20199;-87
2023/12/24 07:20:34;;;;;;;16.95;15.50;;;9.60;99.90;;;;;;4999540;28;20497;-84
2023/12/24 07:23:00;;;;;;;14.52;13.20;;;9.70;99.90;;;;;;4999703;28;20134;-84
2023/12/24 07:25:26;;;;;;;14.82;13.52;;;9.80;99.90;;;;;;5016796;28;20096;-83
2023/12/24 07:27:53;;;;;;;16.90;15.38;;;9.80;99.90;;;;;;5000510;28;20053;-88
2023/12/24 07:30:19;;;;;;;20.25;18.77;;;9.80;99.90;;;;;;5017409;28;20041;-83
2023/12/24 07:32:46;;;;;;;16.05;14.98;;;9.90;99.90;;;;;;5003714;28;20083;-87
2023/12/24 07:35:12;;;;;;;15.90;13.82;;;9.80;99.90;;;;;;5036393;28;20046;-86
2023/12/24 07:37:38;;;;;;;14.30;13.32;;;9.90;99.90;;;;;;5036202;28;20440;-85
2023/12/24 07:40:08;;;;;;;16.10;14.75;;;9.90;99.90;;;;;;5003651;28;20132;-86
2023/12/24 07:42:35;;;;;;;14.98;13.98;;;9.90;99.90;;;;;;5019619;28;20057;-88
2023/12/24 07:45:01;;;;;;;15.02;13.90;;;9.80;99.90;;;;;;5019832;28;20469;-86
2023/12/24 07:47:26;;;;;;;14.75;13.75;;;10.00;99.90;;;;;;4987494;28;20057;-90
2023/12/24 07:49:52;;;;;;;14.68;13.68;;;10.00;99.90;;;;;;5003466;28;20406;-86
2023/12/24 07:52:18;;;;;;;14.20;13.02;;;10.00;99.90;;;;;;5020333;28;20343;-85
2023/12/24 07:54:43;;;;;;;15.05;13.65;;;10.00;99.90;;;;;;5019349;28;20045;-85
2023/12/24 07:57:09;;;;;;;15.00;14.00;;;10.10;99.90;;;;;;5019456;28;20045;-86
2023/12/24 07:59:35;;;;;;;15.23;14.00;;;9.90;99.90;;;;;;5019170;28;20050;-85
2023/12/24 08:02:00;;;;;;;14.85;13.80;;;10.10;99.90;;;;;;5019326;28;20084;-84
2023/12/24 08:04:26;;;;;;;16.38;14.90;;;10.10;99.90;;;;;;5003054;28;20076;-82
2023/12/24 08:06:52;;;;;;;14.23;13.32;;;10.10;99.90;;;;;;5002892;28;20524;-83
2023/12/24 08:09:18;;;;;;;15.15;14.02;;;10.10;99.90;;;;;;5019960;28;20466;-88
2023/12/24 08:11:44;;;;;;;18.55;16.58;;;10.10;99.90;;;;;;5035433;28;20045;-85
2023/12/24 08:14:10;;;;;;;14.23;13.15;;;10.20;99.90;;;;;;5035499;28;20111;-87
2023/12/24 08:16:36;;;;;;;14.50;13.48;;;10.10;99.90;;;;;;5002010;28;20112;-84
2023/12/24 08:19:02;;;;;;;15.50;14.23;;;10.10;99.90;;;;;;5003135;28;20045;-88
2023/12/24 08:21:28;;;;;;;15.65;14.18;;;10.10;99.90;;;;;;5035882;28;20132;-86
2023/12/24 08:23:54;;;;;;;20.15;18.75;;;10.10;99.90;;;;;;5002055;28;20136;-83
2023/12/24 08:26:19;;;;;;;17.38;16.13;;;10.20;99.90;;;;;;5019500;28;20069;-84
2023/12/24 08:28:45;;;;;;;16.27;14.95;;;10.20;99.90;;;;;;5018483;28;20132;-85
2023/12/24 08:31:11;;;;;;;15.38;14.10;;;10.20;99.90;;;;;;5034685;28;20042;-87
2023/12/24 08:33:37;;;;;;;17.83;16.25;;;10.30;99.90;;;;;;5019168;28;20056;-85
2023/12/24 08:36:10;;;;;;;21.20;19.05;;;10.20;99.90;;;;;;5034990;28;20042;-87
2023/12/24 08:38:39;;;;;;;18.85;17.63;;;10.20;99.90;;;;;;5035146;28;20124;-85
2023/12/24 08:41:05;;;;;;;18.02;16.80;;;10.30;99.90;;;;;;5033576;28;20135;-81
2023/12/24 08:43:31;;;;;;;17.90;16.60;;;10.30;99.90;;;;;;5001464;28;20049;-84
2023/12/24 08:45:59;;;;;;;15.93;14.70;;;10.40;99.90;;;;;;5018070;28;20038;-87
2023/12/24 08:48:25;;;;;;;16.30;15.18;;;10.30;99.90;;;;;;5002243;28;20049;-84
2023/12/24 08:50:51;;;;;;;16.45;15.00;;;10.30;99.90;;;;;;5034549;28;20376;-86
2023/12/24 08:53:17;;;;;;;16.08;14.88;;;10.40;99.90;;;;;;5002835;28;20041;-89
2023/12/24 08:55:42;;;;;;;15.57;14.25;;;10.40;99.90;;;;;;5002076;28;20470;-85
2023/12/24 08:58:08;;;;;;;16.25;14.57;;;10.30;99.90;;;;;;5001887;28;20045;-84
2023/12/24 09:00:36;;;;;;;14.27;12.75;;;10.40;99.90;;;;;;5034407;28;20053;-87
2023/12/24 09:03:02;;;;;;;14.35;13.25;;;10.30;99.90;;;;;;5018071;28;20053;-83
2023/12/24 09:05:28;;;;;;;16.85;15.70;;;10.40;99.90;;;;;;5002658;28;20394;-84
2023/12/24 09:07:54;;;;;;;16.02;14.73;;;10.40;99.90;;;;;;5034442;28;20045;-85
2023/12/24 09:10:19;;;;;;;16.45;15.55;;;10.40;99.90;;;;;;5001592;28;20123;-84
2023/12/24 09:12:45;;;;;;;14.50;13.32;;;10.40;99.90;;;;;;5034513;28;20056;-85
2023/12/24 09:15:11;;;;;;;15.80;14.18;;;10.40;99.90;;;;;;4985345;28;20103;-85
2023/12/24 09:17:36;;;;;;;14.77;13.45;;;10.50;99.90;;;;;;5017628;28;20041;-85
2023/12/24 09:20:02;;;;;;;21.70;20.52;;;10.40;99.90;;;;;;4985220;28;20041;-83
2023/12/24 09:22:28;;;;;;;16.92;15.75;;;10.50;99.90;;;;;;5018006;28;20045;-84
2023/12/24 09:24:54;;;;;;;14.30;13.30;;;10.40;99.90;;;;;;5017729;28;20120;-85
2023/12/24 09:27:19;;;;;;;15.02;13.93;;;10.40;99.90;;;;;;4985333;28;20045;-84
2023/12/24 09:29:45;;;;;;;15.27;14.48;;;10.50;99.90;;;;;;5001306;28;20119;-83
2023/12/24 09:32:11;;;;;;;14.40;13.30;;;10.40;99.90;;;;;;5001483;28;20088;-85
2023/12/24 09:34:36;;;;;;;17.05;15.60;;;10.50;99.90;;;;;;5034050;28;20045;-85
2023/12/24 09:37:02;;;;;;;17.60;16.00;;;10.50;99.90;;;;;;5000878;28;20513;-83
2023/12/24 09:39:28;;;;;;;14.63;13.43;;;10.60;99.90;;;;;;5017923;28;20045;-85
2023/12/24 09:41:53;;;;;;;14.65;13.27;;;10.60;99.90;;;;;;5017222;28;20053;-82
2023/12/24 09:44:19;;;;;;;16.92;15.93;;;10.60;99.90;;;;;;5017198;28;20053;-82
2023/12/24 09:46:45;;;;;;;15.57;14.77;;;10.60;99.90;;;;;;5001181;28;20045;-85
2023/12/24 09:49:11;;;;;;;16.38;15.32;;;10.60;99.90;;;;;;5017309;28;20048;-82
2023/12/24 09:51:39;;;;;;;15.88;14.63;;;10.50;99.90;;;;;;5000793;28;20509;-85
2023/12/24 09:54:05;;;;;;;16.30;15.23;;;10.60;99.90;;;;;;5016407;28;20056;-85
2023/12/24 09:56:30;;;;;;;17.10;15.55;;;10.60;99.90;;;;;;5033777;28;20140;-84
2023/12/24 09:58:56;;;;;;;15.73;14.73;;;10.70;99.90;;;;;;5000436;28;20132;-86
2023/12/24 10:01:22;;;;;;;15.93;14.88;;;10.70;99.90;;;;;;5000709;28;20054;-86
2023/12/24 10:03:50;;;;;;;17.25;16.00;;;10.70;99.90;;;;;;5000598;28;20045;-83
2023/12/24 10:06:15;;;;;;;18.45;17.40;;;10.70;99.90;;;;;;5000987;28;20129;-85
2023/12/24 10:08:41;;;;;;;16.98;15.98;;;10.70;99.90;;;;;;5016869;28;20068;-85
2023/12/24 10:11:22;;;;;;;17.30;16.15;;;10.80;99.90;;;;;;4999917;28;20115;-84
2023/12/24 10:13:59;;;;;;;17.17;15.70;;;10.80;99.90;;;;;;5001864;28;20049;-80
2023/12/24 10:16:25;;;;;;;;;;;10.80;99.90;;;;;;5001236;28;20071;-81
2023/12/24 10:18:50;;;;;;;18.03;16.47;;;10.80;99.90;;;;;;5000479;28;20358;-82
2023/12/24 10:21:17;;;;;;;27.98;26.63;;;10.80;99.90;;;;;;5033280;28;20436;-82
2023/12/24 10:23:43;;;;;;;20.33;19.10;;;10.80;99.90;;;;;;5016679;28;20083;-87
2023/12/24 10:26:11;;;;;;;18.70;17.08;;;10.80;99.90;;;;;;5000257;28;20041;-80
2023/12/24 10:28:53;;;;;;;17.70;16.45;;;10.80;99.90;;;;;;5033761;28;20151;-83
2023/12/24 10:31:19;;;;;;;19.65;18.38;;;10.90;99.90;;;;;;5033187;28;20431;-82
2023/12/24 10:33:45;;;;;;;17.27;16.27;;;10.90;99.90;;;;;;5016489;28;20081;-84
2023/12/24 10:36:11;;;;;;;18.83;17.60;;;10.90;99.90;;;;;;5000939;28;20046;-83
2023/12/24 10:38:38;;;;;;;20.40;19.15;;;10.90;99.90;;;;;;4999707;28;20091;-80
2023/12/24 10:41:06;;;;;;;18.52;17.52;;;10.90;99.90;;;;;;5033561;28;20045;-81
2023/12/24 10:43:32;;;;;;;16.65;15.43;;;11.00;99.90;;;;;;4999395;28;20396;-80
2023/12/24 10:45:57;;;;;;;17.73;16.80;;;10.90;99.90;;;;;;5000109;28;20052;-82
2023/12/24 10:48:23;;;;;;;16.92;15.70;;;10.80;99.90;;;;;;5032685;28;20041;-85
2023/12/24 10:50:50;;;;;;;13.95;13.15;;;10.90;99.90;;;;;;5033110;28;20047;-83
2023/12/24 10:53:16;;;;;;;15.32;14.20;;;11.00;99.90;;;;;;5000187;28;20064;-83
2023/12/24 10:55:50;;;;;;;15.27;14.38;;;10.90;99.90;;;;;;5032627;28;20053;-82
2023/12/24 10:58:40;;;;;;;13.13;12.02;;;11.00;99.90;;;;;;5016508;28;20128;-83
2023/12/24 11:01:10;;;;;;;19.98;18.90;;;11.00;99.90;;;;;;5016166;28;20462;-79
2023/12/24 11:03:44;;;;;;;13.75;12.98;;;10.90;99.90;;;;;;5017049;28;20085;-80
2023/12/24 11:06:10;;;;;;;12.27;11.48;;;11.00;99.90;;;;;;5015465;28;20050;-81
2023/12/24 11:08:36;;;;;;;14.07;13.25;;;11.00;99.90;;;;;;4999516;28;20217;-80
2023/12/24 11:11:06;;;;;;;13.98;12.48;;;11.20;99.90;;;;;;5032283;28;20124;-82
2023/12/24 11:13:36;;;;;;;11.90;11.13;;;11.10;99.90;;;;;;5032157;28;20053;-80
2023/12/24 11:16:07;;;;;;;14.65;13.68;;;11.20;99.90;;;;;;5015929;28;20049;-81
2023/12/24 11:18:47;;;;;;;11.90;10.95;;;11.10;99.90;;;;;;5015933;28;20393;-82
2023/12/24 11:21:19;;;;;;;11.18;10.30;;;11.20;99.90;;;;;;5015870;28;20049;-82
2023/12/24 11:24:14;;;;;;;11.90;10.70;;;11.20;99.90;;;;;;5032668;28;20049;-83
2023/12/24 11:26:53;;;;;;;33.72;32.15;;;11.20;99.90;;;;;;5032567;28;20045;-83
2023/12/24 11:29:47;;;;;;;13.07;12.18;;;11.20;99.90;;;;;;5000787;28;20097;-85
2023/12/24 11:32:25;;;;;;;13.68;12.77;;;11.20;99.90;;;;;;5016604;28;20041;-84
2023/12/24 11:34:58;;;;;;;14.25;13.00;;;11.30;99.90;;;;;;5032218;28;20060;-83
2023/12/24 11:37:34;;;;;;;12.27;11.05;;;11.30;99.90;;;;;;5032549;28;20451;-82
2023/12/24 11:40:14;;;;;;;15.13;13.88;;;11.30;99.90;;;;;;4999998;28;20060;-82
2023/12/24 11:42:47;;;;;;;14.73;13.82;;;11.20;99.90;;;;;;5015667;28;20064;-84
2023/12/24 11:45:24;;;;;;;14.70;13.82;;;11.20;99.90;;;;;;5032334;28;20046;-81
2023/12/24 11:47:53;;;;;;;13.27;12.27;;;11.20;99.90;;;;;;5016561;28;20507;-81
2023/12/24 11:50:19;;;;;;;13.20;12.48;;;11.30;99.90;;;;;;5031971;28;20494;-81
2023/12/24 11:52:46;;;;;;;13.60;12.63;;;11.30;99.90;;;;;;5015728;28;20096;-80
2023/12/24 11:55:16;;;;;;;12.63;11.60;;;11.30;99.90;;;;;;5015344;28;20045;-83
2023/12/24 11:57:43;;;;;;;12.32;11.40;;;11.20;99.90;;;;;;5031909;28;20053;-82
2023/12/24 12:00:35;;;;;;;13.30;12.15;;;11.30;99.90;;;;;;5015528;28;20052;-84
2023/12/24 12:03:02;;;;;;;14.10;12.82;;;11.30;99.90;;;;;;5012602;28;20114;-82
2023/12/24 12:05:28;;;;;;;14.50;13.65;;;11.40;99.90;;;;;;5015592;28;20146;-81
2023/12/24 12:07:56;;;;;;;13.57;12.88;;;11.30;99.90;;;;;;5015367;28;20375;-84
2023/12/24 12:10:22;;;;;;;18.10;17.00;;;11.30;99.90;;;;;;5015407;28;20046;-82
2023/12/24 12:12:47;;;;;;;15.05;13.68;;;11.30;99.90;;;;;;5015377;28;20133;-83
2023/12/24 12:15:14;;;;;;;13.93;12.90;;;11.20;99.90;;;;;;4982972;28;20132;-83
2023/12/24 12:17:40;;;;;;;17.67;16.67;;;11.30;99.90;;;;;;5018271;28;20482;-84
2023/12/24 12:20:06;;;;;;;18.55;17.33;;;11.30;99.90;;;;;;5002786;28;20053;-82
2023/12/24 12:22:32;;;;;;;17.98;16.77;;;11.30;99.90;;;;;;5018986;28;20050;-83
2023/12/24 12:24:58;;;;;;;16.52;15.23;;;11.30;99.90;;;;;;5018546;28;20107;-85
2023/12/24 12:27:25;;;;;;;17.88;16.65;;;11.30;99.90;;;;;;5002516;28;20045;-82
2023/12/24 12:29:51;;;;;;;17.00;16.10;;;11.30;99.90;;;;;;5002392;28;20052;-81
2023/12/24 12:32:16;;;;;;;15.93;14.65;;;11.30;99.90;;;;;;5018942;28;20056;-83